Atlanta, New York
Current Conditions -  °F | °C
As of 1:54 PM on Monday 20 Oct 2014 (Local Time) from KDSV Reporting Station
Overcast Overcast  
Wind Chill: 54°   Ceiling: 8000
Heat Index: 54°   Visibility: 10mi
Dew Point: 39°   Wind: 7mph
Humidity: 57%   Direction: 180°S
Pressure: 29.87"   Gusts: NA
Location:  42.55°N, 77.47°W
Report Text: KDSV 201754Z AUTO 18006KT 10SM OVC080 12/04 A2987 RMK AO2 SLP126 60000 T01220039 10128 20028 56028
Loading
Personal Weather Stations






























Interactive Weather Map
Tropical Storm Tracking
New forecast layout! Learn more

10-Day Weather Forecast

Advertisements
Track Severe Weather on mobile